createdAt,value
2023-03-17T18:09:53.728Z,101145.81
2023-03-17T18:16:30.514Z,101155.84
2023-03-17T19:32:37.021Z,101111.61
2023-03-17T19:35:09.331Z,101113.73
2023-03-17T19:37:47.429Z,101107.89
2023-03-17T19:40:15.759Z,101108.78
2023-03-17T19:42:42.837Z,101105.12
2023-03-17T19:45:10.181Z,101104.40
2023-03-17T19:47:37.001Z,101102.66
2023-03-17T19:50:04.152Z,101104.06
2023-03-17T19:52:31.011Z,101103.75
2023-03-17T19:54:58.160Z,101108.00
2023-03-17T19:57:25.221Z,101109.92
2023-03-17T19:59:52.758Z,101113.46
2023-03-17T20:02:20.372Z,101108.78
2023-03-17T20:04:48.693Z,101111.09
2023-03-17T20:07:18.961Z,101107.34
2023-03-17T20:09:49.126Z,101108.46
2023-03-17T20:12:16.409Z,101106.92
2023-03-17T20:14:43.526Z,101107.29
2023-03-17T20:17:11.635Z,101106.77
2023-03-17T20:19:38.983Z,101101.61
2023-03-17T20:22:06.849Z,101095.52
2023-03-17T20:24:34.768Z,101088.02
2023-03-17T20:27:02.938Z,101091.42
2023-03-17T20:29:31.352Z,101086.19
2023-03-17T20:31:58.485Z,101089.40
2023-03-17T20:34:25.477Z,101091.09
2023-03-17T20:36:52.278Z,101092.98
2023-03-17T20:39:19.463Z,101095.10
2023-03-17T20:41:51.173Z,101095.17
2023-03-17T20:44:19.121Z,101098.42
2023-03-17T20:46:47.782Z,101095.98
2023-03-17T20:49:16.972Z,101099.08
2023-03-17T20:51:49.655Z,101097.18
2023-03-17T20:54:17.492Z,101094.80
2023-03-17T20:56:45.380Z,101091.08
2023-03-17T20:59:13.077Z,101088.92
2023-03-17T21:01:40.059Z,101088.58
2023-03-17T21:04:08.604Z,101085.46
2023-03-17T21:06:36.904Z,101081.75
2023-03-17T21:09:04.985Z,101083.73
2023-03-17T21:11:31.970Z,101079.10
2023-03-17T21:13:58.950Z,101077.41
2023-03-17T21:16:28.025Z,101069.42
2023-03-17T21:18:55.561Z,101071.04
2023-03-17T21:21:24.365Z,101066.55
2023-03-17T21:23:51.308Z,101070.65
2023-03-17T21:26:19.181Z,101073.31
2023-03-17T21:28:48.473Z,101074.45
2023-03-17T21:31:16.721Z,101072.25
2023-03-17T21:33:44.618Z,101075.06
2023-03-17T21:36:11.510Z,101073.41
2023-03-17T21:38:38.476Z,101077.16
2023-03-17T21:41:28.327Z,101073.83
2023-03-17T21:43:55.397Z,101073.23
2023-03-17T21:46:22.228Z,101074.45
2023-03-17T21:48:49.450Z,101070.84
2023-03-17T21:51:16.437Z,101071.91
2023-03-17T21:53:44.268Z,101070.38
2023-03-17T21:56:12.524Z,101072.30
2023-03-17T21:58:39.908Z,101071.12
2023-03-17T22:01:07.263Z,101068.36
2023-03-17T22:03:36.152Z,101072.21
2023-03-17T22:06:05.022Z,101071.16
2023-03-17T22:08:32.236Z,101068.43
2023-03-17T22:11:07.359Z,101063.73
2023-03-17T22:13:34.566Z,101065.22
2023-03-17T22:16:01.858Z,101060.69
2023-03-17T22:18:28.753Z,101060.19
2023-03-17T22:20:57.310Z,101060.11
2023-03-17T22:23:25.340Z,101057.90
2023-03-17T22:25:52.526Z,101061.98
2023-03-17T22:28:19.533Z,101062.03
2023-03-17T22:30:46.351Z,101062.91
2023-03-17T22:33:13.716Z,101055.26
2023-03-17T22:35:41.107Z,101054.41
2023-03-17T22:38:08.574Z,101051.15
2023-03-17T22:40:37.650Z,101048.77
2023-03-17T22:43:04.708Z,101052.31
2023-03-17T22:45:31.660Z,101050.09
2023-03-17T22:47:58.564Z,101055.56
2023-03-17T22:50:25.733Z,101051.56
2023-03-17T22:52:52.655Z,101058.05
2023-03-17T22:55:19.685Z,101049.20
2023-03-17T22:57:46.920Z,101050.27
2023-03-17T23:00:16.858Z,101051.48
2023-03-17T23:02:44.696Z,101050.30
2023-03-17T23:05:13.220Z,101041.98
2023-03-17T23:07:50.432Z,101041.71
2023-03-17T23:10:24.386Z,101041.61
2023-03-17T23:12:51.781Z,101045.43
2023-03-17T23:15:20.456Z,101048.90
2023-03-17T23:17:47.300Z,101051.02
2023-03-17T23:20:14.879Z,101048.05
2023-03-17T23:22:41.810Z,101048.23
2023-03-17T23:25:08.902Z,101045.77
2023-03-17T23:27:38.176Z,101042.89
2023-03-17T23:30:06.110Z,101044.15
2023-03-17T23:32:40.058Z,101037.20
2023-03-17T23:35:08.135Z,101042.18
2023-03-17T23:37:35.741Z,101038.81
2023-03-17T23:40:04.121Z,101043.04
2023-03-17T23:42:30.885Z,101036.09
2023-03-17T23:44:58.286Z,101034.90
2023-03-17T23:47:26.132Z,101035.44
2023-03-17T23:49:53.419Z,101030.55
2023-03-17T23:52:21.522Z,101028.34
2023-03-17T23:54:48.871Z,101032.59
2023-03-17T23:57:15.712Z,101034.23
2023-03-17T23:59:43.171Z,101039.69
